createdAt,value
2017-10-10T00:00:10.812Z,12.50
2017-10-10T00:02:39.159Z,12.50
2017-10-10T00:05:07.469Z,12.50
2017-10-10T00:07:36.594Z,12.60
2017-10-10T00:10:04.942Z,12.60
2017-10-10T00:12:33.273Z,12.60
2017-10-10T00:15:01.606Z,12.60
2017-10-10T00:17:29.949Z,12.60
2017-10-10T00:19:58.267Z,12.60
2017-10-10T00:22:26.564Z,12.70
2017-10-10T00:24:54.933Z,12.70
2017-10-10T00:27:23.266Z,12.80
2017-10-10T00:29:51.631Z,12.80
2017-10-10T00:32:20.299Z,12.80
2017-10-10T00:34:48.643Z,12.70
2017-10-10T00:37:16.983Z,12.70
2017-10-10T00:39:45.344Z,12.70
2017-10-10T00:42:13.693Z,12.60
2017-10-10T00:44:42.055Z,12.60
2017-10-10T00:47:10.363Z,12.60
2017-10-10T00:49:38.686Z,12.50
2017-10-10T00:52:06.995Z,12.50
2017-10-10T00:54:35.332Z,12.50
2017-10-10T00:57:03.639Z,12.50
2017-10-10T00:59:31.944Z,12.40
2017-10-10T01:02:00.294Z,12.40
2017-10-10T01:04:29.378Z,12.40
2017-10-10T01:06:58.510Z,12.30
2017-10-10T01:09:26.828Z,12.30
2017-10-10T01:11:55.160Z,12.40
2017-10-10T01:14:23.482Z,12.40
2017-10-10T01:16:51.799Z,12.40
2017-10-10T01:19:20.092Z,12.40
2017-10-10T01:21:49.181Z,12.50
2017-10-10T01:24:18.249Z,12.40
2017-10-10T01:26:46.583Z,12.40
2017-10-10T01:29:14.874Z,12.40
2017-10-10T01:31:43.220Z,12.40
2017-10-10T01:34:11.536Z,12.30
2017-10-10T01:36:39.882Z,12.40
2017-10-10T01:39:08.197Z,12.40
2017-10-10T01:41:36.481Z,12.30
2017-10-10T01:44:04.836Z,12.40
2017-10-10T01:46:33.148Z,12.40
2017-10-10T01:49:02.262Z,12.40
2017-10-10T01:51:31.323Z,12.40
2017-10-10T01:54:00.427Z,12.30
2017-10-10T01:56:30.120Z,12.30
2017-10-10T01:58:59.247Z,12.30
2017-10-10T02:01:28.317Z,12.30
2017-10-10T02:03:56.664Z,12.30
2017-10-10T02:06:24.966Z,12.30
2017-10-10T02:08:53.268Z,12.30
2017-10-10T02:11:22.374Z,12.30
2017-10-10T02:13:50.686Z,12.30
2017-10-10T02:16:19.014Z,12.30
2017-10-10T02:18:47.316Z,12.30
2017-10-10T02:21:15.649Z,12.40
2017-10-10T02:23:43.956Z,12.40
2017-10-10T02:26:12.291Z,12.40
2017-10-10T02:28:40.617Z,12.40
2017-10-10T02:31:08.980Z,12.40
2017-10-10T02:33:38.061Z,12.40
2017-10-10T02:36:07.144Z,12.40
2017-10-10T02:38:35.499Z,12.30
2017-10-10T02:41:03.832Z,12.30
2017-10-10T02:43:32.165Z,12.30
2017-10-10T02:46:00.486Z,12.30
2017-10-10T02:48:28.848Z,12.40
2017-10-10T02:50:57.177Z,12.30
2017-10-10T02:53:25.534Z,12.40
2017-10-10T02:55:53.846Z,12.30
2017-10-10T02:58:22.198Z,12.40
2017-10-10T03:00:50.532Z,12.50
2017-10-10T03:03:18.887Z,12.60
2017-10-10T03:05:47.236Z,12.60
2017-10-10T03:08:15.602Z,12.50
2017-10-10T03:10:43.915Z,12.60
2017-10-10T03:13:12.224Z,12.60
2017-10-10T03:15:41.320Z,12.60
2017-10-10T03:18:09.644Z,12.60
2017-10-10T03:20:37.996Z,12.60
2017-10-10T03:23:07.446Z,12.70
2017-10-10T03:25:35.790Z,12.70
2017-10-10T03:28:04.101Z,12.80
2017-10-10T03:30:33.235Z,12.90
2017-10-10T03:33:01.592Z,12.90
2017-10-10T03:35:30.690Z,12.90
2017-10-10T03:37:59.000Z,12.90
2017-10-10T03:40:28.212Z,12.90
2017-10-10T03:42:56.494Z,13.00
2017-10-10T03:45:24.852Z,13.00
2017-10-10T03:47:53.165Z,13.00
2017-10-10T03:50:21.485Z,13.00
2017-10-10T03:52:50.583Z,13.10
2017-10-10T03:55:18.916Z,13.00
2017-10-10T03:57:47.236Z,13.00
2017-10-10T04:00:15.556Z,13.00
2017-10-10T04:02:44.690Z,13.00
2017-10-10T04:05:13.040Z,12.90
2017-10-10T04:07:41.365Z,13.00
2017-10-10T04:10:09.686Z,12.90
2017-10-10T04:12:38.031Z,12.90
2017-10-10T04:15:06.370Z,12.90
2017-10-10T04:17:35.499Z,12.80
2017-10-10T04:20:03.847Z,12.80
2017-10-10T04:22:32.196Z,12.80
2017-10-10T04:25:00.539Z,12.70
2017-10-10T04:27:28.874Z,12.70
2017-10-10T04:29:57.228Z,12.70
2017-10-10T04:32:26.334Z,12.70
2017-10-10T04:34:55.450Z,12.70
2017-10-10T04:37:24.555Z,12.70
2017-10-10T04:39:53.650Z,12.80
2017-10-10T04:42:22.095Z,12.70
2017-10-10T04:44:50.420Z,12.90
2017-10-10T04:47:18.719Z,12.90
2017-10-10T04:49:47.098Z,12.90
2017-10-10T04:52:15.411Z,12.90
2017-10-10T04:54:44.502Z,12.80
2017-10-10T04:57:13.606Z,12.80
2017-10-10T04:59:41.938Z,12.80
2017-10-10T05:02:10.274Z,12.80
2017-10-10T05:04:38.603Z,12.80
2017-10-10T05:07:06.956Z,12.80
2017-10-10T05:09:35.262Z,12.80
2017-10-10T05:12:03.595Z,12.80
2017-10-10T05:14:31.908Z,12.90
2017-10-10T05:17:00.250Z,12.90
2017-10-10T05:19:28.579Z,12.90
2017-10-10T05:21:58.648Z,13.00
2017-10-10T05:24:27.545Z,13.00
2017-10-10T05:26:55.875Z,13.10
2017-10-10T05:29:24.223Z,13.10
2017-10-10T05:31:52.534Z,13.10
2017-10-10T05:34:20.849Z,13.10
2017-10-10T05:36:49.194Z,13.10
2017-10-10T05:39:18.278Z,13.10
2017-10-10T05:41:46.606Z,13.00
2017-10-10T05:44:14.915Z,13.10
2017-10-10T05:46:43.246Z,13.10
2017-10-10T05:49:11.563Z,13.10
2017-10-10T05:51:39.907Z,13.00
2017-10-10T05:54:08.252Z,13.00
2017-10-10T05:56:36.599Z,13.00
2017-10-10T05:59:05.704Z,13.00
2017-10-10T06:01:34.004Z,13.00
2017-10-10T06:04:02.339Z,13.00
2017-10-10T06:06:30.683Z,12.90
2017-10-10T06:08:59.014Z,12.90
2017-10-10T06:11:27.322Z,12.90
2017-10-10T06:13:56.404Z,12.80
2017-10-10T06:16:24.750Z,12.80
2017-10-10T06:18:53.098Z,12.80
2017-10-10T06:21:21.424Z,12.80
2017-10-10T06:23:49.787Z,12.90
2017-10-10T06:26:18.107Z,12.90
2017-10-10T06:28:46.447Z,13.00
2017-10-10T06:31:15.548Z,13.10
2017-10-10T06:33:44.633Z,13.10
2017-10-10T06:36:12.975Z,13.10
2017-10-10T06:38:43.229Z,13.30
2017-10-10T06:41:11.574Z,13.20
2017-10-10T06:43:39.895Z,13.40
2017-10-10T06:46:09.015Z,13.50
2017-10-10T06:48:38.151Z,13.50
2017-10-10T06:51:06.493Z,13.40
2017-10-10T06:53:35.550Z,13.60
2017-10-10T06:56:05.056Z,13.70
2017-10-10T06:58:34.146Z,13.80
2017-10-10T07:01:02.516Z,13.70
2017-10-10T07:03:30.815Z,13.80
2017-10-10T07:05:59.128Z,13.80
2017-10-10T07:08:27.459Z,14.00
2017-10-10T07:10:56.567Z,14.10
2017-10-10T07:13:25.668Z,14.10
2017-10-10T07:15:54.735Z,14.20
2017-10-10T07:18:23.072Z,14.10
2017-10-10T07:20:51.384Z,14.10
2017-10-10T07:23:19.724Z,14.10
2017-10-10T07:25:48.038Z,14.00
2017-10-10T07:28:16.400Z,13.90
2017-10-10T07:30:44.719Z,13.90
2017-10-10T07:33:13.830Z,13.90
2017-10-10T07:35:42.180Z,13.90
2017-10-10T07:38:11.287Z,14.00
2017-10-10T07:40:39.650Z,13.90
2017-10-10T07:43:08.749Z,13.90
2017-10-10T07:45:37.079Z,13.90
2017-10-10T07:48:06.179Z,14.00
2017-10-10T07:50:34.522Z,13.90
2017-10-10T07:53:03.590Z,13.90
2017-10-10T07:55:31.937Z,13.90
2017-10-10T07:58:00.259Z,13.90
2017-10-10T08:00:28.638Z,13.80
2017-10-10T08:02:57.715Z,13.90
2017-10-10T08:05:26.125Z,13.90
2017-10-10T08:07:54.475Z,13.90
2017-10-10T08:10:23.628Z,13.90
2017-10-10T08:12:52.075Z,13.90
2017-10-10T08:15:20.354Z,13.90
2017-10-10T08:17:48.688Z,13.90
2017-10-10T08:20:17.902Z,13.90
2017-10-10T08:22:46.283Z,13.90
2017-10-10T08:25:15.374Z,14.00
2017-10-10T08:27:43.751Z,14.00
2017-10-10T08:30:12.836Z,14.10
2017-10-10T08:32:41.187Z,14.10
2017-10-10T08:35:09.528Z,14.10
2017-10-10T08:37:38.629Z,14.20
2017-10-10T08:40:06.954Z,14.10
2017-10-10T08:42:35.243Z,14.10
2017-10-10T08:45:03.563Z,14.10
2017-10-10T08:47:31.870Z,14.10
2017-10-10T08:50:00.203Z,14.10
2017-10-10T08:52:28.534Z,14.10
2017-10-10T08:54:57.804Z,14.10
2017-10-10T08:57:26.108Z,14.10
2017-10-10T08:59:54.446Z,14.10
2017-10-10T09:02:22.756Z,14.20
2017-10-10T09:04:51.110Z,14.20
2017-10-10T09:07:19.430Z,14.30
2017-10-10T09:09:47.807Z,14.40
2017-10-10T09:12:16.172Z,14.40
2017-10-10T09:14:44.495Z,14.50
2017-10-10T09:17:13.583Z,14.50
2017-10-10T09:19:42.655Z,14.40
2017-10-10T09:22:11.007Z,14.40
2017-10-10T09:24:40.180Z,14.30
2017-10-10T09:27:08.510Z,14.20
2017-10-10T09:29:36.822Z,14.20
2017-10-10T09:34:34.705Z,14.20
2017-10-10T09:37:03.823Z,14.10
2017-10-10T09:39:32.116Z,14.10
2017-10-10T09:42:00.442Z,14.20
2017-10-10T09:44:29.540Z,14.20
2017-10-10T09:46:57.863Z,14.20
2017-10-10T09:49:26.232Z,14.20
2017-10-10T09:51:54.563Z,14.20
2017-10-10T09:54:22.868Z,14.30
2017-10-10T09:56:51.175Z,14.30
2017-10-10T09:59:19.522Z,14.40
2017-10-10T10:01:47.837Z,14.30
2017-10-10T10:04:16.659Z,14.20
2017-10-10T10:06:44.974Z,14.20
2017-10-10T10:09:13.284Z,14.30
2017-10-10T10:11:41.640Z,14.30
2017-10-10T10:14:09.942Z,14.40
2017-10-10T10:16:38.258Z,14.40
2017-10-10T10:19:06.559Z,14.40
2017-10-10T10:21:34.992Z,14.50
2017-10-10T10:24:03.356Z,14.50
2017-10-10T10:26:32.485Z,14.70
2017-10-10T10:29:00.790Z,14.70
2017-10-10T10:31:29.191Z,14.80
2017-10-10T10:33:57.530Z,14.80
2017-10-10T10:36:25.975Z,14.80
2017-10-10T10:38:54.303Z,14.90
2017-10-10T10:41:22.713Z,15.00
2017-10-10T10:43:51.023Z,15.00
2017-10-10T10:46:19.719Z,15.10
2017-10-10T10:48:48.123Z,15.10
2017-10-10T10:51:16.461Z,15.00
2017-10-10T10:53:45.020Z,15.00
2017-10-10T10:56:13.332Z,15.10
2017-10-10T10:58:41.694Z,15.20
2017-10-10T11:01:10.763Z,15.40
2017-10-10T11:03:39.897Z,15.50
2017-10-10T11:06:08.345Z,15.40
2017-10-10T11:08:36.726Z,15.40
2017-10-10T11:11:05.812Z,15.30
2017-10-10T11:13:34.164Z,15.30
2017-10-10T11:16:02.520Z,15.30
2017-10-10T11:18:30.837Z,15.20
2017-10-10T11:20:59.167Z,15.20
2017-10-10T11:23:27.469Z,15.30
2017-10-10T11:25:55.795Z,15.30
2017-10-10T11:28:24.101Z,15.40
2017-10-10T11:30:52.423Z,15.40
2017-10-10T11:33:20.727Z,15.30
2017-10-10T11:35:49.835Z,15.10
2017-10-10T11:38:18.135Z,15.00
2017-10-10T11:40:46.453Z,15.00
2017-10-10T11:43:15.562Z,15.00
2017-10-10T11:45:44.765Z,14.90
2017-10-10T11:48:13.864Z,15.10
2017-10-10T11:50:42.183Z,15.00
2017-10-10T11:53:10.546Z,15.20
2017-10-10T11:55:38.847Z,15.10
2017-10-10T11:58:07.168Z,15.00
2017-10-10T12:00:36.245Z,15.00
2017-10-10T12:03:04.608Z,15.00
2017-10-10T12:05:33.046Z,15.00
2017-10-10T12:08:01.372Z,14.90
2017-10-10T12:10:30.455Z,15.30
2017-10-10T12:12:59.596Z,15.60
2017-10-10T12:15:27.939Z,15.50
2017-10-10T12:17:57.081Z,16.30
2017-10-10T12:20:25.399Z,16.20
2017-10-10T12:22:53.719Z,16.50
2017-10-10T12:25:22.067Z,16.50
2017-10-10T12:27:52.174Z,16.50
2017-10-10T12:30:20.655Z,16.50
2017-10-10T12:32:48.979Z,16.50
2017-10-10T12:35:17.312Z,16.50
2017-10-10T12:37:46.412Z,16.30
2017-10-10T12:40:15.524Z,16.10
2017-10-10T12:42:44.600Z,16.20
2017-10-10T12:45:12.925Z,16.10
2017-10-10T12:47:41.243Z,16.20
2017-10-10T12:50:09.567Z,16.10
2017-10-10T12:52:38.653Z,16.00
2017-10-10T12:55:07.715Z,16.10
2017-10-10T12:57:36.799Z,16.20
2017-10-10T13:00:05.128Z,16.20
2017-10-10T13:02:34.215Z,16.60
2017-10-10T13:05:02.656Z,16.60
2017-10-10T13:07:30.998Z,16.80
2017-10-10T13:09:59.333Z,16.70
2017-10-10T13:12:28.444Z,16.30
2017-10-10T13:14:56.766Z,16.30
2017-10-10T13:17:25.103Z,16.20
2017-10-10T13:19:53.408Z,16.10
2017-10-10T13:22:21.751Z,16.10
2017-10-10T13:24:50.844Z,16.00
2017-10-10T13:27:19.905Z,16.00
2017-10-10T13:29:48.223Z,15.90
2017-10-10T13:32:16.534Z,16.10
2017-10-10T13:34:44.871Z,16.10
2017-10-10T13:39:47.947Z,16.00
2017-10-10T13:42:16.251Z,15.90
2017-10-10T13:44:44.610Z,15.90
2017-10-10T13:47:13.706Z,15.90
2017-10-10T13:49:42.047Z,15.80
2017-10-10T13:52:10.376Z,15.90
2017-10-10T13:54:39.452Z,15.90
2017-10-10T13:57:08.546Z,15.90
2017-10-10T13:59:36.843Z,15.90
2017-10-10T14:02:05.197Z,16.00
2017-10-10T14:04:33.499Z,16.00
2017-10-10T14:07:01.836Z,16.10
2017-10-10T14:09:30.140Z,16.10
2017-10-10T14:11:58.483Z,16.20
2017-10-10T14:14:26.810Z,16.30
2017-10-10T14:16:55.173Z,16.40
2017-10-10T14:19:23.476Z,16.50
2017-10-10T14:21:51.787Z,16.50
2017-10-10T14:24:20.152Z,16.50
2017-10-10T14:26:48.475Z,16.50
2017-10-10T14:29:17.578Z,16.80
2017-10-10T14:31:47.151Z,16.90
2017-10-10T14:34:15.554Z,16.90
2017-10-10T14:36:44.091Z,16.90
2017-10-10T14:39:13.343Z,16.80
2017-10-10T14:41:41.727Z,16.70
2017-10-10T14:44:10.832Z,16.50
2017-10-10T14:46:39.142Z,16.50
2017-10-10T14:49:07.483Z,16.30
2017-10-10T14:51:35.834Z,16.20
2017-10-10T14:54:04.911Z,16.00
2017-10-10T14:56:33.251Z,16.00
2017-10-10T14:59:02.217Z,15.90
2017-10-10T15:01:30.660Z,15.70
2017-10-10T15:03:58.979Z,15.60
2017-10-10T15:06:27.320Z,15.50
2017-10-10T15:08:55.625Z,15.40
2017-10-10T15:11:23.936Z,15.30
2017-10-10T15:13:52.244Z,15.30
2017-10-10T15:16:20.586Z,15.20
2017-10-10T15:18:48.940Z,15.00
2017-10-10T15:21:17.652Z,14.80
2017-10-10T15:23:46.010Z,14.70
2017-10-10T15:26:14.324Z,14.70
2017-10-10T15:28:42.681Z,14.60
2017-10-10T15:31:11.011Z,14.50
2017-10-10T15:33:39.507Z,14.50
2017-10-10T15:36:08.579Z,14.60
2017-10-10T15:38:36.962Z,14.60
2017-10-10T15:41:05.259Z,14.70
2017-10-10T15:43:33.677Z,14.60
2017-10-10T15:46:03.891Z,14.60
2017-10-10T15:48:33.129Z,14.60
2017-10-10T15:51:01.498Z,14.60
2017-10-10T15:53:29.834Z,14.60
2017-10-10T15:55:58.150Z,14.70
2017-10-10T15:58:26.491Z,14.70
2017-10-10T16:00:54.842Z,14.70
2017-10-10T16:03:23.163Z,14.70
2017-10-10T16:05:51.604Z,14.70
2017-10-10T16:08:19.935Z,14.70
2017-10-10T16:10:48.289Z,14.60
2017-10-10T16:13:19.520Z,14.60
2017-10-10T16:15:48.050Z,14.60
2017-10-10T16:18:16.454Z,14.60
2017-10-10T16:20:44.871Z,14.60
2017-10-10T16:23:13.792Z,14.60
2017-10-10T16:25:42.424Z,14.60
2017-10-10T16:28:10.722Z,14.60
2017-10-10T16:30:39.024Z,14.70
2017-10-10T16:33:07.340Z,14.70
2017-10-10T16:35:35.772Z,14.70
2017-10-10T16:38:04.098Z,14.60
2017-10-10T16:40:33.164Z,14.60
2017-10-10T16:43:01.467Z,14.50
2017-10-10T16:45:30.529Z,14.70
2017-10-10T16:47:58.863Z,14.60
2017-10-10T16:50:27.162Z,14.70
2017-10-10T16:52:55.480Z,14.70
2017-10-10T16:55:24.564Z,14.70
2017-10-10T16:57:53.687Z,14.80
2017-10-10T17:00:22.027Z,14.70
2017-10-10T17:02:50.392Z,14.80
2017-10-10T17:05:18.745Z,14.80
2017-10-10T17:07:47.107Z,14.80
2017-10-10T17:10:15.442Z,14.80
2017-10-10T17:12:44.554Z,14.70
2017-10-10T17:15:13.680Z,14.70
2017-10-10T17:17:42.853Z,14.70
2017-10-10T17:20:11.957Z,14.70
2017-10-10T17:25:14.958Z,14.80
2017-10-10T17:27:43.287Z,14.80
2017-10-10T17:30:11.652Z,14.80
2017-10-10T17:32:39.980Z,14.70
2017-10-10T17:35:08.379Z,14.70
2017-10-10T17:37:36.727Z,14.70
2017-10-10T17:40:05.804Z,14.60
2017-10-10T17:42:34.152Z,14.50
2017-10-10T17:45:03.343Z,14.60
2017-10-10T17:47:32.595Z,14.70
2017-10-10T17:50:00.954Z,14.60
2017-10-10T17:52:29.304Z,14.70
2017-10-10T17:54:57.644Z,14.60
2017-10-10T17:57:26.748Z,14.60
2017-10-10T17:59:55.080Z,14.50
2017-10-10T18:02:23.391Z,14.60
2017-10-10T18:04:52.713Z,14.60
2017-10-10T18:07:21.022Z,14.50
2017-10-10T18:09:50.510Z,14.50
2017-10-10T18:12:18.823Z,14.50
2017-10-10T18:14:47.161Z,14.60
2017-10-10T18:17:15.475Z,14.50
2017-10-10T18:19:44.573Z,14.50
2017-10-10T18:22:12.900Z,14.50
2017-10-10T18:24:41.193Z,14.50
2017-10-10T18:27:09.517Z,14.50
2017-10-10T18:29:38.276Z,14.50
2017-10-10T18:32:06.587Z,14.50
2017-10-10T18:34:35.655Z,14.50
2017-10-10T18:37:04.774Z,14.50
2017-10-10T18:39:33.095Z,14.40
2017-10-10T18:42:01.449Z,14.50
2017-10-10T18:44:29.819Z,14.50
2017-10-10T18:46:58.206Z,14.50
2017-10-10T18:49:27.350Z,14.50
2017-10-10T18:51:55.721Z,14.50
2017-10-10T18:54:24.050Z,14.50
2017-10-10T18:56:52.344Z,14.50
2017-10-10T18:59:21.405Z,14.50
2017-10-10T19:01:49.779Z,14.50
2017-10-10T19:04:18.170Z,14.50
2017-10-10T19:06:46.520Z,14.50
2017-10-10T19:09:15.640Z,14.50
2017-10-10T19:11:44.366Z,14.40
2017-10-10T19:14:13.460Z,14.50
2017-10-10T19:16:41.849Z,14.50
2017-10-10T19:19:10.207Z,14.50
2017-10-10T19:21:38.807Z,14.60
2017-10-10T19:24:07.117Z,14.50
2017-10-10T19:26:35.488Z,14.60
2017-10-10T19:29:04.570Z,14.50
2017-10-10T19:31:32.927Z,14.50
2017-10-10T19:34:01.283Z,14.60
2017-10-10T19:36:29.609Z,14.60
2017-10-10T19:38:57.950Z,14.60
2017-10-10T19:41:26.276Z,14.60
2017-10-10T19:43:55.373Z,14.60
2017-10-10T19:46:24.522Z,14.60
2017-10-10T19:48:52.866Z,14.60
2017-10-10T19:51:21.302Z,14.70
2017-10-10T19:53:49.634Z,14.70
2017-10-10T19:56:17.974Z,14.70
2017-10-10T19:58:46.314Z,14.70
2017-10-10T20:01:14.629Z,14.70
2017-10-10T20:03:43.781Z,14.70
2017-10-10T20:06:12.927Z,14.70
2017-10-10T20:08:41.329Z,14.70
2017-10-10T20:11:09.674Z,14.70
2017-10-10T20:13:38.763Z,14.80
2017-10-10T20:16:07.137Z,14.80
2017-10-10T20:18:36.243Z,14.80
2017-10-10T20:21:05.362Z,14.80
2017-10-10T20:23:33.687Z,14.80
2017-10-10T20:26:02.052Z,14.80
2017-10-10T20:28:30.440Z,14.80
2017-10-10T20:30:58.770Z,14.80
2017-10-10T20:33:27.119Z,14.80
2017-10-10T20:35:56.213Z,14.80
2017-10-10T20:38:24.556Z,14.70
2017-10-10T20:40:52.888Z,14.80
2017-10-10T20:43:22.040Z,14.70
2017-10-10T20:45:50.364Z,14.70
2017-10-10T20:48:18.726Z,14.80
2017-10-10T20:50:47.104Z,14.70
2017-10-10T20:53:15.476Z,14.80
2017-10-10T20:55:43.799Z,14.80
2017-10-10T20:58:12.167Z,14.80
2017-10-10T21:00:40.501Z,14.80
2017-10-10T21:03:09.643Z,14.70
2017-10-10T21:05:37.954Z,14.60
2017-10-10T21:08:06.296Z,14.70
2017-10-10T21:10:34.613Z,14.60
2017-10-10T21:13:02.933Z,14.60
2017-10-10T21:15:31.285Z,14.70
2017-10-10T21:17:59.632Z,14.70
2017-10-10T21:20:28.049Z,14.70
2017-10-10T21:22:57.133Z,14.70
2017-10-10T21:25:26.260Z,14.70
2017-10-10T21:27:55.337Z,14.70
2017-10-10T21:30:24.435Z,14.70
2017-10-10T21:32:53.532Z,14.70
2017-10-10T21:35:21.876Z,14.70
2017-10-10T21:37:50.189Z,14.70
2017-10-10T21:40:18.515Z,14.80
2017-10-10T21:42:46.856Z,14.80
2017-10-10T21:45:15.178Z,14.80
2017-10-10T21:47:43.506Z,14.70
2017-10-10T21:50:12.579Z,14.80
2017-10-10T21:52:41.681Z,14.80
2017-10-10T21:55:10.771Z,14.70
2017-10-10T21:57:39.135Z,14.70
2017-10-10T22:00:08.223Z,14.80
2017-10-10T22:02:36.554Z,14.70
2017-10-10T22:05:04.883Z,14.80
2017-10-10T22:07:33.400Z,14.80
2017-10-10T22:10:01.714Z,14.70
2017-10-10T22:12:30.016Z,14.80
2017-10-10T22:14:59.123Z,14.70
2017-10-10T22:17:28.232Z,14.70
2017-10-10T22:19:56.599Z,14.70
2017-10-10T22:22:24.939Z,14.70
2017-10-10T22:24:53.268Z,14.80
2017-10-10T22:27:21.591Z,14.90
2017-10-10T22:29:49.946Z,14.90
2017-10-10T22:32:18.273Z,15.00
2017-10-10T22:34:46.599Z,14.90
2017-10-10T22:37:14.925Z,14.90
2017-10-10T22:39:45.126Z,15.00
2017-10-10T22:42:13.462Z,14.90
2017-10-10T22:44:41.794Z,15.00
2017-10-10T22:47:10.913Z,15.00
2017-10-10T22:49:39.990Z,14.90
2017-10-10T22:52:08.293Z,14.90
2017-10-10T22:54:37.363Z,15.00
2017-10-10T22:57:05.714Z,15.00
2017-10-10T22:59:34.051Z,15.10
2017-10-10T23:02:03.209Z,15.00
2017-10-10T23:04:31.531Z,15.00
2017-10-10T23:06:59.843Z,15.00
2017-10-10T23:09:28.179Z,15.00
2017-10-10T23:11:56.509Z,15.00
2017-10-10T23:14:24.852Z,15.00
2017-10-10T23:16:53.140Z,15.00
2017-10-10T23:19:21.464Z,15.10
2017-10-10T23:21:49.813Z,15.00
2017-10-10T23:24:18.146Z,15.10
2017-10-10T23:26:46.450Z,15.00
2017-10-10T23:29:14.776Z,15.10
2017-10-10T23:31:43.070Z,15.00
2017-10-10T23:34:11.427Z,15.00
2017-10-10T23:36:39.749Z,15.00
2017-10-10T23:39:08.061Z,15.10
2017-10-10T23:41:36.387Z,15.10
2017-10-10T23:44:04.711Z,15.10
2017-10-10T23:46:33.843Z,15.20
2017-10-10T23:49:02.147Z,15.10
2017-10-10T23:51:30.473Z,15.20
2017-10-10T23:53:59.558Z,15.10
2017-10-10T23:56:27.900Z,15.10
2017-10-10T23:58:56.226Z,15.10
